sensor_id;sensor_type;location;lat;lon;timestamp;P1;durP1;ratioP1;P2;durP2;ratioP2
20988;SDS011;10653;47.052;15.410;2024-03-06T00:00:54;24.23;;;19.50;;
20988;SDS011;10653;47.052;15.410;2024-03-06T00:03:20;21.47;;;17.10;;
20988;SDS011;10653;47.052;15.410;2024-03-06T00:05:47;20.20;;;16.77;;
20988;SDS011;10653;47.052;15.410;2024-03-06T00:08:13;19.10;;;17.03;;
20988;SDS011;10653;47.052;15.410;2024-03-06T00:10:40;18.27;;;16.50;;
20988;SDS011;10653;47.052;15.410;2024-03-06T00:13:06;19.70;;;17.20;;
20988;SDS011;10653;47.052;15.410;2024-03-06T00:15:32;19.77;;;15.50;;
20988;SDS011;10653;47.052;15.410;2024-03-06T00:17:58;21.70;;;16.40;;
20988;SDS011;10653;47.052;15.410;2024-03-06T00:20:24;18.97;;;15.90;;
20988;SDS011;10653;47.052;15.410;2024-03-06T00:22:50;19.00;;;15.77;;
20988;SDS011;10653;47.052;15.410;2024-03-06T00:25:16;20.13;;;15.93;;
20988;SDS011;10653;47.052;15.410;2024-03-06T00:27:42;17.67;;;15.63;;
20988;SDS011;10653;47.052;15.410;2024-03-06T00:30:09;18.63;;;16.50;;
20988;SDS011;10653;47.052;15.410;2024-03-06T00:32:35;15.57;;;14.00;;
20988;SDS011;10653;47.052;15.410;2024-03-06T00:35:01;19.03;;;15.70;;
20988;SDS011;10653;47.052;15.410;2024-03-06T00:37:28;17.77;;;14.87;;
20988;SDS011;10653;47.052;15.410;2024-03-06T00:39:55;16.47;;;14.53;;
20988;SDS011;10653;47.052;15.410;2024-03-06T00:42:21;17.23;;;15.20;;
20988;SDS011;10653;47.052;15.410;2024-03-06T00:44:47;17.13;;;15.30;;
20988;SDS011;10653;47.052;15.410;2024-03-06T00:47:13;19.80;;;15.03;;
20988;SDS011;10653;47.052;15.410;2024-03-06T00:49:39;17.00;;;14.50;;
20988;SDS011;10653;47.052;15.410;2024-03-06T00:52:07;17.13;;;14.57;;
20988;SDS011;10653;47.052;15.410;2024-03-06T00:54:34;16.50;;;14.10;;
20988;SDS011;10653;47.052;15.410;2024-03-06T00:57:00;22.57;;;14.10;;
20988;SDS011;10653;47.052;15.410;2024-03-06T00:59:26;16.20;;;14.10;;
20988;SDS011;10653;47.052;15.410;2024-03-06T01:01:53;14.27;;;12.73;;
20988;SDS011;10653;47.052;15.410;2024-03-06T01:04:22;16.23;;;12.93;;
20988;SDS011;10653;47.052;15.410;2024-03-06T01:06:48;14.90;;;13.13;;
20988;SDS011;10653;47.052;15.410;2024-03-06T01:09:15;14.70;;;13.10;;
20988;SDS011;10653;47.052;15.410;2024-03-06T01:11:41;14.80;;;13.30;;
20988;SDS011;10653;47.052;15.410;2024-03-06T01:14:07;16.67;;;14.10;;
20988;SDS011;10653;47.052;15.410;2024-03-06T01:16:33;18.77;;;15.20;;
20988;SDS011;10653;47.052;15.410;2024-03-06T01:18:59;16.60;;;14.90;;
20988;SDS011;10653;47.052;15.410;2024-03-06T01:21:25;15.73;;;14.13;;
20988;SDS011;10653;47.052;15.410;2024-03-06T01:23:51;16.50;;;14.80;;
20988;SDS011;10653;47.052;15.410;2024-03-06T01:26:17;16.00;;;13.10;;
20988;SDS011;10653;47.052;15.410;2024-03-06T01:28:42;16.37;;;12.97;;
20988;SDS011;10653;47.052;15.410;2024-03-06T01:31:09;13.13;;;11.80;;
20988;SDS011;10653;47.052;15.410;2024-03-06T01:33:35;13.83;;;12.43;;
20988;SDS011;10653;47.052;15.410;2024-03-06T01:36:01;16.40;;;12.87;;
20988;SDS011;10653;47.052;15.410;2024-03-06T01:38:27;14.70;;;10.80;;
20988;SDS011;10653;47.052;15.410;2024-03-06T01:40:53;12.80;;;11.43;;
20988;SDS011;10653;47.052;15.410;2024-03-06T01:43:20;13.60;;;12.20;;
20988;SDS011;10653;47.052;15.410;2024-03-06T01:45:47;17.90;;;13.70;;
20988;SDS011;10653;47.052;15.410;2024-03-06T01:48:14;14.20;;;12.70;;
20988;SDS011;10653;47.052;15.410;2024-03-06T01:50:40;16.17;;;13.63;;
20988;SDS011;10653;47.052;15.410;2024-03-06T01:53:06;14.97;;;12.77;;
20988;SDS011;10653;47.052;15.410;2024-03-06T01:55:33;13.57;;;11.60;;
20988;SDS011;10653;47.052;15.410;2024-03-06T01:57:59;16.60;;;12.87;;
20988;SDS011;10653;47.052;15.410;2024-03-06T02:00:25;15.53;;;12.43;;
20988;SDS011;10653;47.052;15.410;2024-03-06T02:02:51;13.83;;;12.40;;
20988;SDS011;10653;47.052;15.410;2024-03-06T02:05:17;18.60;;;14.17;;
20988;SDS011;10653;47.052;15.410;2024-03-06T02:07:44;15.60;;;13.07;;
20988;SDS011;10653;47.052;15.410;2024-03-06T02:10:10;14.97;;;13.17;;
20988;SDS011;10653;47.052;15.410;2024-03-06T02:12:37;14.13;;;12.70;;
20988;SDS011;10653;47.052;15.410;2024-03-06T02:15:03;13.30;;;11.90;;
20988;SDS011;10653;47.052;15.410;2024-03-06T02:17:30;16.10;;;13.33;;
20988;SDS011;10653;47.052;15.410;2024-03-06T02:19:56;14.10;;;12.63;;
20988;SDS011;10653;47.052;15.410;2024-03-06T02:22:25;11.90;;;10.70;;
20988;SDS011;10653;47.052;15.410;2024-03-06T02:24:50;14.13;;;12.70;;
20988;SDS011;10653;47.052;15.410;2024-03-06T02:27:17;14.80;;;12.77;;
20988;SDS011;10653;47.052;15.410;2024-03-06T02:29:43;16.90;;;12.90;;
20988;SDS011;10653;47.052;15.410;2024-03-06T02:32:09;14.13;;;12.63;;
20988;SDS011;10653;47.052;15.410;2024-03-06T02:34:35;16.53;;;11.97;;
20988;SDS011;10653;47.052;15.410;2024-03-06T02:37:01;13.70;;;10.90;;
20988;SDS011;10653;47.052;15.410;2024-03-06T02:39:27;12.40;;;11.20;;
20988;SDS011;10653;47.052;15.410;2024-03-06T02:41:52;13.77;;;11.43;;
20988;SDS011;10653;47.052;15.410;2024-03-06T02:44:18;12.30;;;11.10;;
20988;SDS011;10653;47.052;15.410;2024-03-06T02:46:48;13.07;;;11.70;;
20988;SDS011;10653;47.052;15.410;2024-03-06T02:49:15;14.73;;;11.83;;
20988;SDS011;10653;47.052;15.410;2024-03-06T02:51:41;12.77;;;10.90;;
20988;SDS011;10653;47.052;15.410;2024-03-06T02:54:07;15.50;;;11.70;;
20988;SDS011;10653;47.052;15.410;2024-03-06T02:56:33;12.43;;;10.67;;
20988;SDS011;10653;47.052;15.410;2024-03-06T02:58:59;13.50;;;11.30;;
20988;SDS011;10653;47.052;15.410;2024-03-06T03:01:28;11.93;;;10.70;;
20988;SDS011;10653;47.052;15.410;2024-03-06T03:03:54;12.97;;;11.63;;
20988;SDS011;10653;47.052;15.410;2024-03-06T03:06:21;16.90;;;11.10;;
20988;SDS011;10653;47.052;15.410;2024-03-06T03:08:49;13.17;;;11.87;;
20988;SDS011;10653;47.052;15.410;2024-03-06T03:11:15;12.23;;;10.57;;
20988;SDS011;10653;47.052;15.410;2024-03-06T03:13:41;14.60;;;10.93;;
20988;SDS011;10653;47.052;15.410;2024-03-06T03:16:14;11.93;;;10.73;;
20988;SDS011;10653;47.052;15.410;2024-03-06T03:18:42;13.93;;;11.60;;
20988;SDS011;10653;47.052;15.410;2024-03-06T03:21:08;15.73;;;12.47;;
20988;SDS011;10653;47.052;15.410;2024-03-06T03:23:37;14.63;;;12.40;;
20988;SDS011;10653;47.052;15.410;2024-03-06T03:26:04;14.30;;;11.73;;
20988;SDS011;10653;47.052;15.410;2024-03-06T03:28:30;12.43;;;9.87;;
20988;SDS011;10653;47.052;15.410;2024-03-06T03:30:57;13.50;;;11.63;;
20988;SDS011;10653;47.052;15.410;2024-03-06T03:33:23;12.07;;;10.77;;
20988;SDS011;10653;47.052;15.410;2024-03-06T03:35:49;15.13;;;11.50;;
20988;SDS011;10653;47.052;15.410;2024-03-06T03:38:16;14.03;;;11.60;;
20988;SDS011;10653;47.052;15.410;2024-03-06T03:40:42;14.07;;;11.80;;
20988;SDS011;10653;47.052;15.410;2024-03-06T03:43:08;13.10;;;10.27;;
20988;SDS011;10653;47.052;15.410;2024-03-06T03:45:34;13.10;;;10.53;;
20988;SDS011;10653;47.052;15.410;2024-03-06T03:48:01;12.10;;;10.47;;
20988;SDS011;10653;47.052;15.410;2024-03-06T03:50:30;13.80;;;11.27;;
20988;SDS011;10653;47.052;15.410;2024-03-06T03:52:56;15.17;;;11.13;;
20988;SDS011;10653;47.052;15.410;2024-03-06T03:55:23;12.90;;;11.67;;
20988;SDS011;10653;47.052;15.410;2024-03-06T03:57:50;13.30;;;11.90;;
20988;SDS011;10653;47.052;15.410;2024-03-06T04:00:17;14.07;;;12.30;;
20988;SDS011;10653;47.052;15.410;2024-03-06T04:02:43;14.23;;;12.73;;
20988;SDS011;10653;47.052;15.410;2024-03-06T04:05:09;13.53;;;12.13;;
20988;SDS011;10653;47.052;15.410;2024-03-06T04:07:36;13.50;;;10.70;;
20988;SDS011;10653;47.052;15.410;2024-03-06T04:10:02;13.97;;;11.60;;
20988;SDS011;10653;47.052;15.410;2024-03-06T04:12:28;15.03;;;12.30;;
20988;SDS011;10653;47.052;15.410;2024-03-06T04:14:54;13.27;;;11.80;;
20988;SDS011;10653;47.052;15.410;2024-03-06T04:17:20;14.10;;;12.40;;
20988;SDS011;10653;47.052;15.410;2024-03-06T04:19:46;16.87;;;14.10;;
20988;SDS011;10653;47.052;15.410;2024-03-06T04:22:13;14.80;;;11.83;;
20988;SDS011;10653;47.052;15.410;2024-03-06T04:24:42;18.80;;;12.40;;
20988;SDS011;10653;47.052;15.410;2024-03-06T04:27:08;12.63;;;11.33;;
20988;SDS011;10653;47.052;15.410;2024-03-06T04:29:35;13.00;;;11.63;;
20988;SDS011;10653;47.052;15.410;2024-03-06T04:32:01;11.93;;;10.70;;
20988;SDS011;10653;47.052;15.410;2024-03-06T04:34:27;14.23;;;12.40;;
20988;SDS011;10653;47.052;15.410;2024-03-06T04:36:53;15.33;;;11.97;;
20988;SDS011;10653;47.052;15.410;2024-03-06T04:39:19;13.87;;;11.00;;
20988;SDS011;10653;47.052;15.410;2024-03-06T04:41:45;13.27;;;11.60;;
20988;SDS011;10653;47.052;15.410;2024-03-06T04:44:11;12.27;;;10.97;;
20988;SDS011;10653;47.052;15.410;2024-03-06T04:46:37;12.30;;;11.10;;
20988;SDS011;10653;47.052;15.410;2024-03-06T04:49:03;15.00;;;11.97;;
20988;SDS011;10653;47.052;15.410;2024-03-06T04:51:29;15.13;;;13.03;;
20988;SDS011;10653;47.052;15.410;2024-03-06T04:53:55;14.03;;;12.50;;
20988;SDS011;10653;47.052;15.410;2024-03-06T04:56:21;13.30;;;11.87;;
20988;SDS011;10653;47.052;15.410;2024-03-06T04:58:47;16.63;;;12.80;;
20988;SDS011;10653;47.052;15.410;2024-03-06T05:01:13;17.63;;;13.53;;
20988;SDS011;10653;47.052;15.410;2024-03-06T05:03:39;16.00;;;13.03;;
20988;SDS011;10653;47.052;15.410;2024-03-06T05:06:05;14.23;;;12.00;;
20988;SDS011;10653;47.052;15.410;2024-03-06T05:08:31;13.47;;;12.00;;
20988;SDS011;10653;47.052;15.410;2024-03-06T05:10:59;13.97;;;11.90;;
20988;SDS011;10653;47.052;15.410;2024-03-06T05:13:25;14.70;;;12.97;;
20988;SDS011;10653;47.052;15.410;2024-03-06T05:15:52;16.50;;;12.47;;
20988;SDS011;10653;47.052;15.410;2024-03-06T05:18:19;16.63;;;13.70;;
20988;SDS011;10653;47.052;15.410;2024-03-06T05:20:45;14.83;;;13.10;;
20988;SDS011;10653;47.052;15.410;2024-03-06T05:23:12;15.43;;;12.97;;
20988;SDS011;10653;47.052;15.410;2024-03-06T05:25:39;16.07;;;13.77;;
20988;SDS011;10653;47.052;15.410;2024-03-06T05:28:06;15.33;;;12.40;;
20988;SDS011;10653;47.052;15.410;2024-03-06T05:30:32;13.53;;;12.03;;
20988;SDS011;10653;47.052;15.410;2024-03-06T05:32:58;13.73;;;12.30;;
20988;SDS011;10653;47.052;15.410;2024-03-06T05:35:24;14.47;;;12.57;;
20988;SDS011;10653;47.052;15.410;2024-03-06T05:37:50;15.23;;;12.00;;
20988;SDS011;10653;47.052;15.410;2024-03-06T05:40:16;16.33;;;12.67;;
20988;SDS011;10653;47.052;15.410;2024-03-06T05:42:42;14.03;;;12.03;;
20988;SDS011;10653;47.052;15.410;2024-03-06T05:45:08;16.30;;;13.90;;
20988;SDS011;10653;47.052;15.410;2024-03-06T05:47:37;18.93;;;16.63;;
20988;SDS011;10653;47.052;15.410;2024-03-06T05:50:03;25.30;;;21.20;;
20988;SDS011;10653;47.052;15.410;2024-03-06T05:52:30;26.80;;;20.83;;
20988;SDS011;10653;47.052;15.410;2024-03-06T05:54:56;31.00;;;24.90;;
20988;SDS011;10653;47.052;15.410;2024-03-06T05:57:22;24.43;;;20.40;;
20988;SDS011;10653;47.052;15.410;2024-03-06T05:59:50;24.53;;;19.17;;
20988;SDS011;10653;47.052;15.410;2024-03-06T06:02:16;20.43;;;17.70;;
20988;SDS011;10653;47.052;15.410;2024-03-06T06:04:43;22.53;;;17.80;;
20988;SDS011;10653;47.052;15.410;2024-03-06T06:07:09;18.80;;;14.70;;
20988;SDS011;10653;47.052;15.410;2024-03-06T06:09:35;18.20;;;15.40;;
20988;SDS011;10653;47.052;15.410;2024-03-06T06:12:01;16.47;;;13.70;;
20988;SDS011;10653;47.052;15.410;2024-03-06T06:14:27;15.43;;;13.87;;
20988;SDS011;10653;47.052;15.410;2024-03-06T06:16:54;14.30;;;12.80;;
20988;SDS011;10653;47.052;15.410;2024-03-06T06:19:20;16.40;;;13.70;;
20988;SDS011;10653;47.052;15.410;2024-03-06T06:21:46;13.37;;;11.97;;
20988;SDS011;10653;47.052;15.410;2024-03-06T06:24:12;19.33;;;13.97;;
20988;SDS011;10653;47.052;15.410;2024-03-06T06:26:39;14.60;;;12.70;;
20988;SDS011;10653;47.052;15.410;2024-03-06T06:29:05;15.90;;;12.50;;
20988;SDS011;10653;47.052;15.410;2024-03-06T06:31:31;14.20;;;11.53;;
20988;SDS011;10653;47.052;15.410;2024-03-06T06:33:57;14.43;;;13.03;;
20988;SDS011;10653;47.052;15.410;2024-03-06T06:36:23;15.40;;;12.90;;
20988;SDS011;10653;47.052;15.410;2024-03-06T06:38:49;17.10;;;13.57;;
20988;SDS011;10653;47.052;15.410;2024-03-06T06:41:16;14.57;;;12.13;;
20988;SDS011;10653;47.052;15.410;2024-03-06T06:43:42;15.63;;;12.50;;
20988;SDS011;10653;47.052;15.410;2024-03-06T06:46:08;15.70;;;12.20;;
20988;SDS011;10653;47.052;15.410;2024-03-06T06:48:35;14.27;;;11.77;;
20988;SDS011;10653;47.052;15.410;2024-03-06T06:51:01;12.47;;;11.17;;
20988;SDS011;10653;47.052;15.410;2024-03-06T06:53:28;17.00;;;12.97;;
20988;SDS011;10653;47.052;15.410;2024-03-06T06:55:54;14.77;;;13.23;;
20988;SDS011;10653;47.052;15.410;2024-03-06T06:58:20;19.50;;;12.67;;
20988;SDS011;10653;47.052;15.410;2024-03-06T07:00:46;15.17;;;13.03;;
20988;SDS011;10653;47.052;15.410;2024-03-06T07:03:13;17.30;;;13.70;;
20988;SDS011;10653;47.052;15.410;2024-03-06T07:05:39;20.60;;;13.73;;
20988;SDS011;10653;47.052;15.410;2024-03-06T07:08:07;15.20;;;13.47;;
20988;SDS011;10653;47.052;15.410;2024-03-06T07:10:33;17.87;;;13.10;;
20988;SDS011;10653;47.052;15.410;2024-03-06T07:13:01;17.17;;;13.70;;
20988;SDS011;10653;47.052;15.410;2024-03-06T07:15:27;16.37;;;12.53;;
20988;SDS011;10653;47.052;15.410;2024-03-06T07:17:54;18.73;;;13.13;;
20988;SDS011;10653;47.052;15.410;2024-03-06T07:20:20;15.43;;;12.40;;
20988;SDS011;10653;47.052;15.410;2024-03-06T07:22:46;18.43;;;13.07;;
20988;SDS011;10653;47.052;15.410;2024-03-06T07:25:12;14.37;;;12.87;;
20988;SDS011;10653;47.052;15.410;2024-03-06T07:27:38;14.33;;;12.60;;
20988;SDS011;10653;47.052;15.410;2024-03-06T07:30:04;18.83;;;13.20;;
20988;SDS011;10653;47.052;15.410;2024-03-06T07:32:32;15.30;;;12.63;;
20988;SDS011;10653;47.052;15.410;2024-03-06T07:34:58;14.37;;;12.90;;
20988;SDS011;10653;47.052;15.410;2024-03-06T07:37:24;14.60;;;12.70;;
20988;SDS011;10653;47.052;15.410;2024-03-06T07:39:50;18.87;;;12.27;;
20988;SDS011;10653;47.052;15.410;2024-03-06T07:42:16;18.43;;;13.70;;
20988;SDS011;10653;47.052;15.410;2024-03-06T07:44:43;16.70;;;14.10;;
20988;SDS011;10653;47.052;15.410;2024-03-06T07:47:09;20.53;;;15.10;;
20988;SDS011;10653;47.052;15.410;2024-03-06T07:49:35;17.03;;;14.27;;
20988;SDS011;10653;47.052;15.410;2024-03-06T07:52:01;19.77;;;14.93;;
20988;SDS011;10653;47.052;15.410;2024-03-06T07:54:27;18.50;;;13.97;;
20988;SDS011;10653;47.052;15.410;2024-03-06T07:56:53;18.80;;;13.93;;
20988;SDS011;10653;47.052;15.410;2024-03-06T07:59:19;17.93;;;14.40;;
20988;SDS011;10653;47.052;15.410;2024-03-06T08:01:45;21.10;;;14.70;;
20988;SDS011;10653;47.052;15.410;2024-03-06T08:04:11;16.87;;;14.63;;
20988;SDS011;10653;47.052;15.410;2024-03-06T08:06:38;15.97;;;14.27;;
20988;SDS011;10653;47.052;15.410;2024-03-06T08:09:04;25.67;;;15.83;;
20988;SDS011;10653;47.052;15.410;2024-03-06T08:11:32;24.30;;;14.90;;
20988;SDS011;10653;47.052;15.410;2024-03-06T08:13:58;20.30;;;15.10;;
20988;SDS011;10653;47.052;15.410;2024-03-06T08:16:25;20.50;;;15.70;;
20988;SDS011;10653;47.052;15.410;2024-03-06T08:18:51;21.27;;;16.70;;
20988;SDS011;10653;47.052;15.410;2024-03-06T08:21:17;23.63;;;16.63;;
20988;SDS011;10653;47.052;15.410;2024-03-06T08:23:44;19.07;;;15.97;;
20988;SDS011;10653;47.052;15.410;2024-03-06T08:26:12;22.67;;;16.50;;
20988;SDS011;10653;47.052;15.410;2024-03-06T08:28:38;23.43;;;16.00;;
20988;SDS011;10653;47.052;15.410;2024-03-06T08:31:04;24.10;;;17.30;;
20988;SDS011;10653;47.052;15.410;2024-03-06T08:33:30;21.90;;;19.47;;
20988;SDS011;10653;47.052;15.410;2024-03-06T08:35:56;23.77;;;19.10;;
20988;SDS011;10653;47.052;15.410;2024-03-06T08:38:23;20.50;;;17.60;;
20988;SDS011;10653;47.052;15.410;2024-03-06T08:40:49;23.40;;;17.53;;
20988;SDS011;10653;47.052;15.410;2024-03-06T08:43:15;20.77;;;17.70;;
20988;SDS011;10653;47.052;15.410;2024-03-06T08:45:41;21.67;;;17.50;;
20988;SDS011;10653;47.052;15.410;2024-03-06T08:48:08;20.33;;;16.73;;
20988;SDS011;10653;47.052;15.410;2024-03-06T08:50:34;24.57;;;16.50;;
20988;SDS011;10653;47.052;15.410;2024-03-06T08:53:00;21.10;;;18.43;;
20988;SDS011;10653;47.052;15.410;2024-03-06T08:55:29;26.43;;;19.83;;
20988;SDS011;10653;47.052;15.410;2024-03-06T08:57:55;25.20;;;19.60;;
20988;SDS011;10653;47.052;15.410;2024-03-06T09:00:21;24.10;;;20.70;;
20988;SDS011;10653;47.052;15.410;2024-03-06T09:02:47;26.87;;;20.63;;
20988;SDS011;10653;47.052;15.410;2024-03-06T09:05:14;27.67;;;18.87;;
20988;SDS011;10653;47.052;15.410;2024-03-06T09:07:40;25.73;;;20.13;;
20988;SDS011;10653;47.052;15.410;2024-03-06T09:10:07;25.80;;;18.50;;
20988;SDS011;10653;47.052;15.410;2024-03-06T09:12:33;30.13;;;20.40;;
20988;SDS011;10653;47.052;15.410;2024-03-06T09:15:00;25.77;;;21.30;;
20988;SDS011;10653;47.052;15.410;2024-03-06T09:17:26;25.43;;;18.50;;
20988;SDS011;10653;47.052;15.410;2024-03-06T09:19:52;27.37;;;19.83;;
20988;SDS011;10653;47.052;15.410;2024-03-06T09:22:18;25.70;;;20.50;;
20988;SDS011;10653;47.052;15.410;2024-03-06T09:24:44;28.97;;;19.27;;
20988;SDS011;10653;47.052;15.410;2024-03-06T09:27:10;25.10;;;19.20;;
20988;SDS011;10653;47.052;15.410;2024-03-06T09:29:36;26.40;;;21.53;;
20988;SDS011;10653;47.052;15.410;2024-03-06T09:32:02;25.83;;;19.90;;
20988;SDS011;10653;47.052;15.410;2024-03-06T09:34:28;30.27;;;21.03;;
20988;SDS011;10653;47.052;15.410;2024-03-06T09:36:54;26.20;;;20.93;;
20988;SDS011;10653;47.052;15.410;2024-03-06T09:39:20;24.37;;;19.70;;
20988;SDS011;10653;47.052;15.410;2024-03-06T09:41:49;28.83;;;21.33;;
20988;SDS011;10653;47.052;15.410;2024-03-06T09:44:16;30.00;;;20.27;;
20988;SDS011;10653;47.052;15.410;2024-03-06T09:46:42;26.37;;;21.60;;
20988;SDS011;10653;47.052;15.410;2024-03-06T09:49:09;27.80;;;23.80;;
20988;SDS011;10653;47.052;15.410;2024-03-06T09:51:35;28.40;;;22.20;;
20988;SDS011;10653;47.052;15.410;2024-03-06T09:54:03;32.30;;;23.70;;
20988;SDS011;10653;47.052;15.410;2024-03-06T09:56:29;28.93;;;22.90;;
20988;SDS011;10653;47.052;15.410;2024-03-06T09:58:55;29.37;;;22.80;;
20988;SDS011;10653;47.052;15.410;2024-03-06T10:01:21;25.97;;;21.67;;
20988;SDS011;10653;47.052;15.410;2024-03-06T10:03:49;27.50;;;22.30;;
20988;SDS011;10653;47.052;15.410;2024-03-06T10:06:15;27.83;;;20.20;;
20988;SDS011;10653;47.052;15.410;2024-03-06T10:08:42;32.53;;;23.13;;
20988;SDS011;10653;47.052;15.410;2024-03-06T10:11:10;34.17;;;22.90;;
20988;SDS011;10653;47.052;15.410;2024-03-06T10:13:36;30.97;;;24.50;;
20988;SDS011;10653;47.052;15.410;2024-03-06T10:16:03;26.33;;;22.13;;
20988;SDS011;10653;47.052;15.410;2024-03-06T10:18:33;31.60;;;24.10;;
20988;SDS011;10653;47.052;15.410;2024-03-06T10:20:59;32.87;;;22.80;;
20988;SDS011;10653;47.052;15.410;2024-03-06T10:23:26;32.03;;;24.47;;
20988;SDS011;10653;47.052;15.410;2024-03-06T10:25:55;28.50;;;25.00;;
20988;SDS011;10653;47.052;15.410;2024-03-06T10:28:22;34.13;;;24.00;;
20988;SDS011;10653;47.052;15.410;2024-03-06T10:30:48;28.33;;;23.07;;
20988;SDS011;10653;47.052;15.410;2024-03-06T10:33:15;29.97;;;23.17;;
20988;SDS011;10653;47.052;15.410;2024-03-06T10:35:43;28.97;;;23.60;;
20988;SDS011;10653;47.052;15.410;2024-03-06T10:38:10;26.57;;;23.07;;
20988;SDS011;10653;47.052;15.410;2024-03-06T10:40:37;32.83;;;24.00;;
20988;SDS011;10653;47.052;15.410;2024-03-06T10:43:03;30.43;;;24.00;;
20988;SDS011;10653;47.052;15.410;2024-03-06T10:45:40;31.13;;;23.00;;
20988;SDS011;10653;47.052;15.410;2024-03-06T10:48:07;27.73;;;23.13;;
20988;SDS011;10653;47.052;15.410;2024-03-06T10:50:36;31.50;;;22.60;;
20988;SDS011;10653;47.052;15.410;2024-03-06T10:53:04;32.97;;;23.30;;
20988;SDS011;10653;47.052;15.410;2024-03-06T10:55:32;29.23;;;23.53;;
20988;SDS011;10653;47.052;15.410;2024-03-06T10:58:00;26.43;;;21.73;;
20988;SDS011;10653;47.052;15.410;2024-03-06T11:00:26;31.83;;;22.57;;
20988;SDS011;10653;47.052;15.410;2024-03-06T11:02:54;29.60;;;22.67;;
20988;SDS011;10653;47.052;15.410;2024-03-06T11:05:20;33.43;;;23.53;;
20988;SDS011;10653;47.052;15.410;2024-03-06T11:07:46;32.30;;;22.60;;
20988;SDS011;10653;47.052;15.410;2024-03-06T11:10:12;30.10;;;22.20;;
20988;SDS011;10653;47.052;15.410;2024-03-06T11:12:41;27.90;;;22.20;;
20988;SDS011;10653;47.052;15.410;2024-03-06T11:17:36;26.53;;;17.40;;
20988;SDS011;10653;47.052;15.410;2024-03-06T11:28:06;24.50;;;19.20;;
20988;SDS011;10653;47.052;15.410;2024-03-06T11:30:44;23.97;;;16.10;;
20988;SDS011;10653;47.052;15.410;2024-03-06T11:33:11;28.50;;;21.97;;
20988;SDS011;10653;47.052;15.410;2024-03-06T11:35:38;31.27;;;25.10;;
20988;SDS011;10653;47.052;15.410;2024-03-06T11:38:05;33.80;;;24.67;;
20988;SDS011;10653;47.052;15.410;2024-03-06T11:40:42;34.47;;;26.37;;
20988;SDS011;10653;47.052;15.410;2024-03-06T11:43:26;24.43;;;18.50;;
20988;SDS011;10653;47.052;15.410;2024-03-06T11:45:53;26.67;;;20.63;;
20988;SDS011;10653;47.052;15.410;2024-03-06T11:48:19;22.83;;;17.10;;
20988;SDS011;10653;47.052;15.410;2024-03-06T11:50:46;23.20;;;17.57;;
20988;SDS011;10653;47.052;15.410;2024-03-06T11:53:13;27.10;;;17.87;;
20988;SDS011;10653;47.052;15.410;2024-03-06T11:55:41;29.57;;;15.87;;
20988;SDS011;10653;47.052;15.410;2024-03-06T11:58:08;25.50;;;17.40;;
20988;SDS011;10653;47.052;15.410;2024-03-06T12:00:36;24.37;;;18.20;;
20988;SDS011;10653;47.052;15.410;2024-03-06T12:03:03;20.70;;;15.40;;
20988;SDS011;10653;47.052;15.410;2024-03-06T12:05:30;21.53;;;16.87;;
20988;SDS011;10653;47.052;15.410;2024-03-06T12:07:56;21.60;;;15.77;;
20988;SDS011;10653;47.052;15.410;2024-03-06T12:10:22;24.00;;;15.80;;
20988;SDS011;10653;47.052;15.410;2024-03-06T12:12:49;22.63;;;17.33;;
20988;SDS011;10653;47.052;15.410;2024-03-06T12:15:15;22.40;;;16.70;;
20988;SDS011;10653;47.052;15.410;2024-03-06T12:17:44;28.13;;;18.07;;
20988;SDS011;10653;47.052;15.410;2024-03-06T12:20:15;31.43;;;18.60;;
20988;SDS011;10653;47.052;15.410;2024-03-06T12:25:10;24.73;;;18.03;;
20988;SDS011;10653;47.052;15.410;2024-03-06T12:27:43;22.13;;;16.67;;
20988;SDS011;10653;47.052;15.410;2024-03-06T12:30:10;22.43;;;16.60;;
20988;SDS011;10653;47.052;15.410;2024-03-06T12:32:38;25.97;;;18.00;;
20988;SDS011;10653;47.052;15.410;2024-03-06T12:35:04;22.80;;;17.50;;
20988;SDS011;10653;47.052;15.410;2024-03-06T12:37:31;25.37;;;18.13;;
20988;SDS011;10653;47.052;15.410;2024-03-06T12:39:57;28.40;;;19.70;;
20988;SDS011;10653;47.052;15.410;2024-03-06T12:42:23;30.33;;;18.40;;
20988;SDS011;10653;47.052;15.410;2024-03-06T12:44:50;25.87;;;17.90;;
20988;SDS011;10653;47.052;15.410;2024-03-06T12:47:17;29.43;;;18.50;;
20988;SDS011;10653;47.052;15.410;2024-03-06T12:49:43;25.23;;;19.60;;
20988;SDS011;10653;47.052;15.410;2024-03-06T12:52:09;26.07;;;19.70;;
20988;SDS011;10653;47.052;15.410;2024-03-06T12:54:35;24.73;;;20.80;;
20988;SDS011;10653;47.052;15.410;2024-03-06T12:57:01;26.37;;;19.73;;
20988;SDS011;10653;47.052;15.410;2024-03-06T12:59:27;24.83;;;19.97;;
20988;SDS011;10653;47.052;15.410;2024-03-06T13:01:53;24.83;;;19.97;;
20988;SDS011;10653;47.052;15.410;2024-03-06T13:04:19;23.73;;;20.93;;
20988;SDS011;10653;47.052;15.410;2024-03-06T13:06:45;23.97;;;21.23;;
20988;SDS011;10653;47.052;15.410;2024-03-06T13:09:12;26.50;;;23.13;;
20988;SDS011;10653;47.052;15.410;2024-03-06T13:11:38;22.83;;;20.43;;
20988;SDS011;10653;47.052;15.410;2024-03-06T13:14:04;26.43;;;21.87;;
20988;SDS011;10653;47.052;15.410;2024-03-06T13:16:30;26.20;;;22.73;;
20988;SDS011;10653;47.052;15.410;2024-03-06T13:18:56;25.77;;;23.03;;
20988;SDS011;10653;47.052;15.410;2024-03-06T13:21:22;23.97;;;21.43;;
20988;SDS011;10653;47.052;15.410;2024-03-06T13:23:48;25.10;;;22.23;;
20988;SDS011;10653;47.052;15.410;2024-03-06T13:26:14;24.70;;;21.80;;
20988;SDS011;10653;47.052;15.410;2024-03-06T13:28:40;24.70;;;22.20;;
20988;SDS011;10653;47.052;15.410;2024-03-06T13:31:07;23.80;;;21.40;;
20988;SDS011;10653;47.052;15.410;2024-03-06T13:33:33;23.37;;;20.97;;
20988;SDS011;10653;47.052;15.410;2024-03-06T13:35:59;22.90;;;20.57;;
20988;SDS011;10653;47.052;15.410;2024-03-06T13:38:25;24.07;;;21.33;;
20988;SDS011;10653;47.052;15.410;2024-03-06T13:40:51;22.47;;;20.07;;
20988;SDS011;10653;47.052;15.410;2024-03-06T13:43:17;22.27;;;18.83;;
20988;SDS011;10653;47.052;15.410;2024-03-06T13:45:50;21.93;;;18.77;;
20988;SDS011;10653;47.052;15.410;2024-03-06T13:48:18;23.63;;;19.43;;
20988;SDS011;10653;47.052;15.410;2024-03-06T13:50:44;21.27;;;17.90;;
20988;SDS011;10653;47.052;15.410;2024-03-06T13:53:11;21.57;;;17.50;;
20988;SDS011;10653;47.052;15.410;2024-03-06T13:55:37;21.33;;;16.33;;
20988;SDS011;10653;47.052;15.410;2024-03-06T13:58:03;20.27;;;16.87;;
20988;SDS011;10653;47.052;15.410;2024-03-06T14:00:29;20.30;;;15.37;;
20988;SDS011;10653;47.052;15.410;2024-03-06T14:02:55;21.20;;;15.57;;
20988;SDS011;10653;47.052;15.410;2024-03-06T14:05:22;16.63;;;13.30;;
20988;SDS011;10653;47.052;15.410;2024-03-06T14:07:52;20.30;;;16.70;;
20988;SDS011;10653;47.052;15.410;2024-03-06T14:10:18;23.40;;;17.30;;
20988;SDS011;10653;47.052;15.410;2024-03-06T14:12:46;20.43;;;16.10;;
20988;SDS011;10653;47.052;15.410;2024-03-06T14:15:12;22.10;;;15.73;;
20988;SDS011;10653;47.052;15.410;2024-03-06T14:17:40;24.10;;;17.07;;